sensor_id;sensor_type;location;lat;lon;timestamp;P1;durP1;ratioP1;P2;durP2;ratioP2
31126;SDS011;17775;57.948;12.514;2022-10-13T00:00:01;10.05;;;1.85;;
31126;SDS011;17775;57.948;12.514;2022-10-13T00:02:28;7.75;;;1.77;;
31126;SDS011;17775;57.948;12.514;2022-10-13T00:04:54;9.05;;;3.30;;
31126;SDS011;17775;57.948;12.514;2022-10-13T00:07:21;12.93;;;2.33;;
31126;SDS011;17775;57.948;12.514;2022-10-13T00:09:47;9.15;;;2.10;;
31126;SDS011;17775;57.948;12.514;2022-10-13T00:12:13;10.73;;;2.38;;
31126;SDS011;17775;57.948;12.514;2022-10-13T00:14:40;6.93;;;1.90;;
31126;SDS011;17775;57.948;12.514;2022-10-13T00:17:06;11.48;;;2.63;;
31126;SDS011;17775;57.948;12.514;2022-10-13T00:19:32;13.48;;;2.80;;
31126;SDS011;17775;57.948;12.514;2022-10-13T00:21:59;15.75;;;2.83;;
31126;SDS011;17775;57.948;12.514;2022-10-13T00:24:26;13.82;;;4.40;;
31126;SDS011;17775;57.948;12.514;2022-10-13T00:26:52;18.08;;;4.32;;
31126;SDS011;17775;57.948;12.514;2022-10-13T00:29:19;10.48;;;2.47;;
31126;SDS011;17775;57.948;12.514;2022-10-13T00:31:46;15.25;;;2.80;;
31126;SDS011;17775;57.948;12.514;2022-10-13T00:34:13;12.18;;;2.60;;
31126;SDS011;17775;57.948;12.514;2022-10-13T00:36:39;11.82;;;3.00;;
31126;SDS011;17775;57.948;12.514;2022-10-13T00:39:06;14.82;;;2.65;;
31126;SDS011;17775;57.948;12.514;2022-10-13T00:41:32;13.32;;;3.05;;
31126;SDS011;17775;57.948;12.514;2022-10-13T00:44:00;13.52;;;2.80;;
31126;SDS011;17775;57.948;12.514;2022-10-13T00:46:27;11.95;;;2.45;;
31126;SDS011;17775;57.948;12.514;2022-10-13T00:48:54;14.07;;;3.33;;
31126;SDS011;17775;57.948;12.514;2022-10-13T00:51:23;12.55;;;4.57;;
31126;SDS011;17775;57.948;12.514;2022-10-13T00:53:51;17.33;;;3.08;;
31126;SDS011;17775;57.948;12.514;2022-10-13T00:56:18;11.95;;;2.28;;
31126;SDS011;17775;57.948;12.514;2022-10-13T00:58:44;15.95;;;2.80;;
31126;SDS011;17775;57.948;12.514;2022-10-13T01:01:12;11.70;;;2.83;;
31126;SDS011;17775;57.948;12.514;2022-10-13T01:03:39;14.85;;;2.80;;
31126;SDS011;17775;57.948;12.514;2022-10-13T01:06:06;9.00;;;2.63;;
31126;SDS011;17775;57.948;12.514;2022-10-13T01:08:33;11.40;;;2.55;;
31126;SDS011;17775;57.948;12.514;2022-10-13T01:19:09;13.25;;;3.00;;
31126;SDS011;17775;57.948;12.514;2022-10-13T01:35:04;15.00;;;2.58;;
31126;SDS011;17775;57.948;12.514;2022-10-13T01:40:26;6.47;;;2.38;;
31126;SDS011;17775;57.948;12.514;2022-10-13T01:42:55;14.98;;;2.95;;
31126;SDS011;17775;57.948;12.514;2022-10-13T01:45:25;8.43;;;2.38;;
31126;SDS011;17775;57.948;12.514;2022-10-13T01:47:54;11.10;;;2.72;;
31126;SDS011;17775;57.948;12.514;2022-10-13T01:50:21;18.50;;;5.95;;
31126;SDS011;17775;57.948;12.514;2022-10-13T01:52:48;15.57;;;4.05;;
31126;SDS011;17775;57.948;12.514;2022-10-13T01:55:15;14.60;;;3.67;;
31126;SDS011;17775;57.948;12.514;2022-10-13T01:57:43;15.45;;;3.40;;
31126;SDS011;17775;57.948;12.514;2022-10-13T02:00:11;26.35;;;4.15;;
31126;SDS011;17775;57.948;12.514;2022-10-13T02:07:38;12.38;;;3.33;;
31126;SDS011;17775;57.948;12.514;2022-10-13T02:10:27;19.38;;;4.68;;
31126;SDS011;17775;57.948;12.514;2022-10-13T02:13:00;10.80;;;3.53;;
31126;SDS011;17775;57.948;12.514;2022-10-13T02:15:30;12.35;;;4.00;;
31126;SDS011;17775;57.948;12.514;2022-10-13T02:17:57;13.27;;;4.30;;
31126;SDS011;17775;57.948;12.514;2022-10-13T02:20:25;15.45;;;4.68;;
31126;SDS011;17775;57.948;12.514;2022-10-13T02:22:53;11.32;;;4.05;;
31126;SDS011;17775;57.948;12.514;2022-10-13T02:25:21;19.65;;;6.15;;
31126;SDS011;17775;57.948;12.514;2022-10-13T02:27:47;27.20;;;6.68;;
31126;SDS011;17775;57.948;12.514;2022-10-13T02:30:22;9.18;;;4.22;;
31126;SDS011;17775;57.948;12.514;2022-10-13T02:32:49;22.70;;;4.60;;
31126;SDS011;17775;57.948;12.514;2022-10-13T02:35:15;16.27;;;4.75;;
31126;SDS011;17775;57.948;12.514;2022-10-13T02:37:42;10.23;;;4.60;;
31126;SDS011;17775;57.948;12.514;2022-10-13T02:40:08;14.35;;;5.38;;
31126;SDS011;17775;57.948;12.514;2022-10-13T02:42:35;21.88;;;4.95;;
31126;SDS011;17775;57.948;12.514;2022-10-13T02:45:01;17.48;;;5.72;;
31126;SDS011;17775;57.948;12.514;2022-10-13T02:47:28;15.95;;;4.30;;
31126;SDS011;17775;57.948;12.514;2022-10-13T02:49:54;15.48;;;4.75;;
31126;SDS011;17775;57.948;12.514;2022-10-13T02:52:20;23.48;;;7.20;;
31126;SDS011;17775;57.948;12.514;2022-10-13T02:54:47;29.08;;;5.50;;
31126;SDS011;17775;57.948;12.514;2022-10-13T02:57:14;18.50;;;4.88;;
31126;SDS011;17775;57.948;12.514;2022-10-13T02:59:43;26.73;;;4.60;;
31126;SDS011;17775;57.948;12.514;2022-10-13T03:02:10;20.08;;;5.30;;
31126;SDS011;17775;57.948;12.514;2022-10-13T03:04:36;16.90;;;5.80;;
31126;SDS011;17775;57.948;12.514;2022-10-13T03:07:02;22.17;;;4.95;;
31126;SDS011;17775;57.948;12.514;2022-10-13T03:09:29;10.93;;;4.63;;
31126;SDS011;17775;57.948;12.514;2022-10-13T03:11:55;17.90;;;5.50;;
31126;SDS011;17775;57.948;12.514;2022-10-13T03:14:22;13.75;;;4.72;;
31126;SDS011;17775;57.948;12.514;2022-10-13T03:16:49;14.63;;;4.57;;
31126;SDS011;17775;57.948;12.514;2022-10-13T03:19:15;20.10;;;4.68;;
31126;SDS011;17775;57.948;12.514;2022-10-13T03:21:41;12.00;;;4.32;;
31126;SDS011;17775;57.948;12.514;2022-10-13T03:24:08;16.95;;;5.25;;
31126;SDS011;17775;57.948;12.514;2022-10-13T03:26:34;15.18;;;4.70;;
31126;SDS011;17775;57.948;12.514;2022-10-13T03:29:01;20.15;;;5.25;;
31126;SDS011;17775;57.948;12.514;2022-10-13T03:31:27;13.18;;;4.80;;
31126;SDS011;17775;57.948;12.514;2022-10-13T03:33:54;13.52;;;4.90;;
31126;SDS011;17775;57.948;12.514;2022-10-13T03:36:20;15.65;;;4.45;;
31126;SDS011;17775;57.948;12.514;2022-10-13T03:38:46;20.52;;;4.80;;
31126;SDS011;17775;57.948;12.514;2022-10-13T03:41:16;10.32;;;4.70;;
31126;SDS011;17775;57.948;12.514;2022-10-13T03:43:43;22.13;;;5.03;;
31126;SDS011;17775;57.948;12.514;2022-10-13T03:46:10;13.60;;;4.43;;
31126;SDS011;17775;57.948;12.514;2022-10-13T03:48:37;18.33;;;5.25;;
31126;SDS011;17775;57.948;12.514;2022-10-13T03:51:04;17.55;;;5.22;;
31126;SDS011;17775;57.948;12.514;2022-10-13T03:53:31;18.27;;;4.95;;
31126;SDS011;17775;57.948;12.514;2022-10-13T03:55:58;19.42;;;4.47;;
31126;SDS011;17775;57.948;12.514;2022-10-13T03:58:25;12.98;;;4.88;;
31126;SDS011;17775;57.948;12.514;2022-10-13T04:00:54;14.82;;;4.45;;
31126;SDS011;17775;57.948;12.514;2022-10-13T04:03:21;15.38;;;3.88;;
31126;SDS011;17775;57.948;12.514;2022-10-13T04:05:47;17.15;;;6.13;;
31126;SDS011;17775;57.948;12.514;2022-10-13T04:08:13;16.95;;;4.65;;
31126;SDS011;17775;57.948;12.514;2022-10-13T04:10:40;16.75;;;4.22;;
31126;SDS011;17775;57.948;12.514;2022-10-13T04:13:06;23.77;;;4.60;;
31126;SDS011;17775;57.948;12.514;2022-10-13T04:15:39;17.10;;;4.40;;
31126;SDS011;17775;57.948;12.514;2022-10-13T04:18:06;15.40;;;4.75;;
31126;SDS011;17775;57.948;12.514;2022-10-13T04:20:37;13.23;;;4.50;;
31126;SDS011;17775;57.948;12.514;2022-10-13T04:23:03;23.70;;;5.38;;
31126;SDS011;17775;57.948;12.514;2022-10-13T04:25:30;13.27;;;3.85;;
31126;SDS011;17775;57.948;12.514;2022-10-13T04:27:56;25.88;;;5.25;;
31126;SDS011;17775;57.948;12.514;2022-10-13T04:30:23;12.98;;;4.63;;
31126;SDS011;17775;57.948;12.514;2022-10-13T04:32:49;17.25;;;5.47;;
31126;SDS011;17775;57.948;12.514;2022-10-13T04:35:15;15.65;;;5.35;;
31126;SDS011;17775;57.948;12.514;2022-10-13T04:37:42;19.15;;;6.63;;
31126;SDS011;17775;57.948;12.514;2022-10-13T04:40:10;14.32;;;5.35;;
31126;SDS011;17775;57.948;12.514;2022-10-13T04:42:36;13.20;;;4.68;;
31126;SDS011;17775;57.948;12.514;2022-10-13T04:45:03;15.07;;;4.45;;
31126;SDS011;17775;57.948;12.514;2022-10-13T04:47:30;17.35;;;4.70;;
31126;SDS011;17775;57.948;12.514;2022-10-13T04:50:02;16.02;;;5.53;;
31126;SDS011;17775;57.948;12.514;2022-10-13T04:52:28;19.95;;;5.47;;
31126;SDS011;17775;57.948;12.514;2022-10-13T04:54:55;10.40;;;4.65;;
31126;SDS011;17775;57.948;12.514;2022-10-13T04:57:21;19.85;;;4.53;;
31126;SDS011;17775;57.948;12.514;2022-10-13T04:59:47;14.18;;;4.20;;
31126;SDS011;17775;57.948;12.514;2022-10-13T05:02:14;15.43;;;4.90;;
31126;SDS011;17775;57.948;12.514;2022-10-13T05:04:40;13.60;;;4.55;;
31126;SDS011;17775;57.948;12.514;2022-10-13T05:07:06;18.80;;;5.88;;
31126;SDS011;17775;57.948;12.514;2022-10-13T05:09:49;13.05;;;4.20;;
31126;SDS011;17775;57.948;12.514;2022-10-13T05:12:16;14.50;;;4.07;;
31126;SDS011;17775;57.948;12.514;2022-10-13T05:14:42;19.05;;;4.70;;
31126;SDS011;17775;57.948;12.514;2022-10-13T05:17:09;19.02;;;5.05;;
31126;SDS011;17775;57.948;12.514;2022-10-13T05:19:35;16.40;;;4.20;;
31126;SDS011;17775;57.948;12.514;2022-10-13T05:22:02;14.20;;;4.38;;
31126;SDS011;17775;57.948;12.514;2022-10-13T05:24:28;13.13;;;4.38;;
31126;SDS011;17775;57.948;12.514;2022-10-13T05:27:05;17.88;;;4.47;;
31126;SDS011;17775;57.948;12.514;2022-10-13T05:29:32;18.23;;;4.07;;
31126;SDS011;17775;57.948;12.514;2022-10-13T05:31:58;16.73;;;4.53;;
31126;SDS011;17775;57.948;12.514;2022-10-13T05:34:27;17.20;;;4.13;;
31126;SDS011;17775;57.948;12.514;2022-10-13T05:36:54;14.65;;;5.18;;
31126;SDS011;17775;57.948;12.514;2022-10-13T05:39:20;20.30;;;5.10;;
31126;SDS011;17775;57.948;12.514;2022-10-13T05:41:47;17.30;;;4.97;;
31126;SDS011;17775;57.948;12.514;2022-10-13T05:44:14;16.17;;;4.30;;
31126;SDS011;17775;57.948;12.514;2022-10-13T05:46:42;14.40;;;4.55;;
31126;SDS011;17775;57.948;12.514;2022-10-13T05:49:09;15.18;;;4.15;;
31126;SDS011;17775;57.948;12.514;2022-10-13T05:51:40;15.30;;;4.20;;
31126;SDS011;17775;57.948;12.514;2022-10-13T05:54:09;14.82;;;4.25;;
31126;SDS011;17775;57.948;12.514;2022-10-13T05:56:39;19.33;;;4.50;;
31126;SDS011;17775;57.948;12.514;2022-10-13T05:59:06;19.10;;;3.92;;
31126;SDS011;17775;57.948;12.514;2022-10-13T06:01:35;13.27;;;4.13;;
31126;SDS011;17775;57.948;12.514;2022-10-13T06:04:05;17.90;;;4.45;;
31126;SDS011;17775;57.948;12.514;2022-10-13T06:06:33;17.73;;;4.15;;
31126;SDS011;17775;57.948;12.514;2022-10-13T06:09:00;17.63;;;4.45;;
31126;SDS011;17775;57.948;12.514;2022-10-13T06:11:26;15.75;;;4.43;;
31126;SDS011;17775;57.948;12.514;2022-10-13T06:13:53;14.48;;;3.97;;
31126;SDS011;17775;57.948;12.514;2022-10-13T06:16:19;14.60;;;4.45;;
31126;SDS011;17775;57.948;12.514;2022-10-13T06:18:45;14.48;;;3.78;;
31126;SDS011;17775;57.948;12.514;2022-10-13T06:21:12;18.13;;;4.35;;
31126;SDS011;17775;57.948;12.514;2022-10-13T06:23:38;16.08;;;4.78;;
31126;SDS011;17775;57.948;12.514;2022-10-13T06:26:05;10.77;;;3.65;;
31126;SDS011;17775;57.948;12.514;2022-10-13T06:28:32;21.45;;;4.65;;
31126;SDS011;17775;57.948;12.514;2022-10-13T06:30:58;13.95;;;3.95;;
31126;SDS011;17775;57.948;12.514;2022-10-13T06:33:25;14.65;;;3.67;;
31126;SDS011;17775;57.948;12.514;2022-10-13T06:35:51;19.02;;;3.70;;
31126;SDS011;17775;57.948;12.514;2022-10-13T06:38:18;20.60;;;4.03;;
31126;SDS011;17775;57.948;12.514;2022-10-13T06:40:44;16.13;;;4.13;;
31126;SDS011;17775;57.948;12.514;2022-10-13T06:43:11;14.18;;;3.67;;
31126;SDS011;17775;57.948;12.514;2022-10-13T06:45:37;21.50;;;5.05;;
31126;SDS011;17775;57.948;12.514;2022-10-13T06:48:04;13.75;;;3.33;;
31126;SDS011;17775;57.948;12.514;2022-10-13T06:50:30;10.88;;;3.80;;
31126;SDS011;17775;57.948;12.514;2022-10-13T06:52:57;16.40;;;3.53;;
31126;SDS011;17775;57.948;12.514;2022-10-13T06:55:23;12.85;;;3.40;;
31126;SDS011;17775;57.948;12.514;2022-10-13T06:57:50;14.40;;;3.35;;
31126;SDS011;17775;57.948;12.514;2022-10-13T07:00:16;8.43;;;2.88;;
31126;SDS011;17775;57.948;12.514;2022-10-13T07:02:43;14.15;;;3.15;;
31126;SDS011;17775;57.948;12.514;2022-10-13T07:05:09;14.23;;;4.43;;
31126;SDS011;17775;57.948;12.514;2022-10-13T07:07:35;15.32;;;3.50;;
31126;SDS011;17775;57.948;12.514;2022-10-13T07:10:02;15.50;;;3.47;;
31126;SDS011;17775;57.948;12.514;2022-10-13T07:12:28;11.00;;;3.20;;
31126;SDS011;17775;57.948;12.514;2022-10-13T07:14:55;20.75;;;3.55;;
31126;SDS011;17775;57.948;12.514;2022-10-13T07:17:21;15.43;;;2.92;;
31126;SDS011;17775;57.948;12.514;2022-10-13T07:19:48;10.70;;;2.55;;
31126;SDS011;17775;57.948;12.514;2022-10-13T07:22:14;16.60;;;2.97;;
31126;SDS011;17775;57.948;12.514;2022-10-13T07:24:44;10.27;;;2.85;;
31126;SDS011;17775;57.948;12.514;2022-10-13T07:27:10;15.30;;;3.47;;
31126;SDS011;17775;57.948;12.514;2022-10-13T07:29:37;11.90;;;2.85;;
31126;SDS011;17775;57.948;12.514;2022-10-13T07:32:03;12.75;;;3.30;;
31126;SDS011;17775;57.948;12.514;2022-10-13T07:34:30;12.25;;;3.17;;
31126;SDS011;17775;57.948;12.514;2022-10-13T07:36:56;11.23;;;3.15;;
31126;SDS011;17775;57.948;12.514;2022-10-13T07:39:23;9.73;;;2.50;;
31126;SDS011;17775;57.948;12.514;2022-10-13T07:41:49;13.18;;;2.80;;
31126;SDS011;17775;57.948;12.514;2022-10-13T07:44:18;9.93;;;2.80;;
31126;SDS011;17775;57.948;12.514;2022-10-13T07:46:45;11.50;;;3.30;;
31126;SDS011;17775;57.948;12.514;2022-10-13T07:49:11;13.00;;;2.95;;
31126;SDS011;17775;57.948;12.514;2022-10-13T07:51:41;11.02;;;2.58;;
31126;SDS011;17775;57.948;12.514;2022-10-13T07:54:09;12.90;;;3.35;;
31126;SDS011;17775;57.948;12.514;2022-10-13T07:56:36;14.77;;;3.65;;
31126;SDS011;17775;57.948;12.514;2022-10-13T07:59:02;14.30;;;2.92;;
31126;SDS011;17775;57.948;12.514;2022-10-13T08:01:31;9.73;;;2.75;;
31126;SDS011;17775;57.948;12.514;2022-10-13T08:03:57;10.40;;;3.05;;
31126;SDS011;17775;57.948;12.514;2022-10-13T08:06:24;13.18;;;3.88;;
31126;SDS011;17775;57.948;12.514;2022-10-13T08:08:51;15.35;;;2.88;;
31126;SDS011;17775;57.948;12.514;2022-10-13T08:11:17;16.60;;;2.80;;
31126;SDS011;17775;57.948;12.514;2022-10-13T08:13:47;10.50;;;2.85;;
31126;SDS011;17775;57.948;12.514;2022-10-13T08:16:14;12.27;;;3.35;;
31126;SDS011;17775;57.948;12.514;2022-10-13T08:18:43;7.90;;;3.78;;
31126;SDS011;17775;57.948;12.514;2022-10-13T08:21:14;14.85;;;3.55;;
31126;SDS011;17775;57.948;12.514;2022-10-13T08:24:01;9.07;;;2.70;;
31126;SDS011;17775;57.948;12.514;2022-10-13T08:26:28;14.00;;;2.92;;
31126;SDS011;17775;57.948;12.514;2022-10-13T08:28:54;13.40;;;3.00;;
31126;SDS011;17775;57.948;12.514;2022-10-13T08:31:41;11.35;;;3.08;;
31126;SDS011;17775;57.948;12.514;2022-10-13T08:34:08;11.20;;;3.15;;
31126;SDS011;17775;57.948;12.514;2022-10-13T08:36:35;9.65;;;3.13;;
31126;SDS011;17775;57.948;12.514;2022-10-13T08:39:02;12.77;;;3.25;;
31126;SDS011;17775;57.948;12.514;2022-10-13T08:41:29;8.88;;;2.90;;
31126;SDS011;17775;57.948;12.514;2022-10-13T08:43:57;9.77;;;2.85;;
31126;SDS011;17775;57.948;12.514;2022-10-13T08:46:52;14.13;;;3.40;;
31126;SDS011;17775;57.948;12.514;2022-10-13T08:49:19;16.80;;;3.22;;
31126;SDS011;17775;57.948;12.514;2022-10-13T08:51:45;13.77;;;2.70;;
31126;SDS011;17775;57.948;12.514;2022-10-13T08:54:13;6.88;;;3.28;;
31126;SDS011;17775;57.948;12.514;2022-10-13T08:56:41;11.68;;;2.90;;
31126;SDS011;17775;57.948;12.514;2022-10-13T08:59:09;11.70;;;2.92;;
31126;SDS011;17775;57.948;12.514;2022-10-13T09:01:38;18.20;;;2.92;;
31126;SDS011;17775;57.948;12.514;2022-10-13T09:04:15;9.30;;;2.67;;
31126;SDS011;17775;57.948;12.514;2022-10-13T09:06:53;24.67;;;4.88;;
31126;SDS011;17775;57.948;12.514;2022-10-13T09:09:20;9.75;;;2.50;;
31126;SDS011;17775;57.948;12.514;2022-10-13T09:11:48;8.85;;;2.70;;
31126;SDS011;17775;57.948;12.514;2022-10-13T09:16:45;9.57;;;2.63;;
31126;SDS011;17775;57.948;12.514;2022-10-13T09:19:13;14.98;;;2.70;;
31126;SDS011;17775;57.948;12.514;2022-10-13T09:21:39;10.82;;;2.22;;
31126;SDS011;17775;57.948;12.514;2022-10-13T09:24:06;9.02;;;2.50;;
31126;SDS011;17775;57.948;12.514;2022-10-13T09:26:37;10.00;;;2.67;;
31126;SDS011;17775;57.948;12.514;2022-10-13T09:29:08;7.57;;;2.35;;
31126;SDS011;17775;57.948;12.514;2022-10-13T09:34:24;15.88;;;2.75;;
31126;SDS011;17775;57.948;12.514;2022-10-13T09:36:59;10.82;;;2.13;;
31126;SDS011;17775;57.948;12.514;2022-10-13T09:39:26;8.05;;;2.65;;
31126;SDS011;17775;57.948;12.514;2022-10-13T09:42:07;13.82;;;3.45;;
31126;SDS011;17775;57.948;12.514;2022-10-13T09:44:34;8.15;;;2.15;;
31126;SDS011;17775;57.948;12.514;2022-10-13T09:47:01;11.07;;;3.10;;
31126;SDS011;17775;57.948;12.514;2022-10-13T09:49:36;10.38;;;3.13;;
31126;SDS011;17775;57.948;12.514;2022-10-13T09:52:04;9.85;;;3.28;;
31126;SDS011;17775;57.948;12.514;2022-10-13T09:54:48;9.93;;;2.00;;
31126;SDS011;17775;57.948;12.514;2022-10-13T09:57:37;24.42;;;3.20;;
31126;SDS011;17775;57.948;12.514;2022-10-13T10:00:21;7.68;;;2.35;;
31126;SDS011;17775;57.948;12.514;2022-10-13T10:02:55;9.02;;;2.75;;
31126;SDS011;17775;57.948;12.514;2022-10-13T10:05:25;8.80;;;2.25;;
31126;SDS011;17775;57.948;12.514;2022-10-13T10:07:51;17.92;;;2.55;;
31126;SDS011;17775;57.948;12.514;2022-10-13T10:10:26;9.13;;;2.30;;
31126;SDS011;17775;57.948;12.514;2022-10-13T10:12:54;6.32;;;2.45;;
31126;SDS011;17775;57.948;12.514;2022-10-13T10:15:23;11.15;;;2.75;;
31126;SDS011;17775;57.948;12.514;2022-10-13T10:17:51;11.55;;;2.35;;
31126;SDS011;17775;57.948;12.514;2022-10-13T10:23:01;9.38;;;2.22;;
31126;SDS011;17775;57.948;12.514;2022-10-13T10:25:36;5.78;;;2.60;;
31126;SDS011;17775;57.948;12.514;2022-10-13T10:31:17;6.82;;;2.45;;
31126;SDS011;17775;57.948;12.514;2022-10-13T10:36:11;17.63;;;4.35;;
31126;SDS011;17775;57.948;12.514;2022-10-13T10:43:59;9.63;;;2.08;;
31126;SDS011;17775;57.948;12.514;2022-10-13T10:46:29;12.85;;;2.65;;
31126;SDS011;17775;57.948;12.514;2022-10-13T10:48:57;12.32;;;2.50;;
31126;SDS011;17775;57.948;12.514;2022-10-13T10:51:28;6.57;;;2.40;;
31126;SDS011;17775;57.948;12.514;2022-10-13T10:54:02;9.85;;;2.80;;
31126;SDS011;17775;57.948;12.514;2022-10-13T10:56:38;7.63;;;2.70;;
31126;SDS011;17775;57.948;12.514;2022-10-13T11:02:00;10.13;;;2.13;;
31126;SDS011;17775;57.948;12.514;2022-10-13T11:06:56;9.57;;;2.10;;
31126;SDS011;17775;57.948;12.514;2022-10-13T11:14:47;6.28;;;2.47;;
31126;SDS011;17775;57.948;12.514;2022-10-13T11:17:30;13.00;;;2.42;;
31126;SDS011;17775;57.948;12.514;2022-10-13T11:19:57;8.45;;;2.45;;
31126;SDS011;17775;57.948;12.514;2022-10-13T11:22:27;9.15;;;2.63;;
31126;SDS011;17775;57.948;12.514;2022-10-13T11:27:35;9.93;;;2.88;;
31126;SDS011;17775;57.948;12.514;2022-10-13T11:30:03;7.95;;;2.45;;
31126;SDS011;17775;57.948;12.514;2022-10-13T11:37:51;9.35;;;2.70;;
31126;SDS011;17775;57.948;12.514;2022-10-13T11:45:48;9.88;;;2.90;;
31126;SDS011;17775;57.948;12.514;2022-10-13T11:51:09;11.60;;;2.38;;
31126;SDS011;17775;57.948;12.514;2022-10-13T11:56:34;10.60;;;2.65;;
31126;SDS011;17775;57.948;12.514;2022-10-13T11:59:16;10.27;;;2.72;;
31126;SDS011;17775;57.948;12.514;2022-10-13T12:01:43;9.35;;;2.28;;
31126;SDS011;17775;57.948;12.514;2022-10-13T12:04:13;12.57;;;3.17;;
31126;SDS011;17775;57.948;12.514;2022-10-13T12:06:40;7.57;;;2.50;;
31126;SDS011;17775;57.948;12.514;2022-10-13T12:09:17;7.55;;;2.20;;
31126;SDS011;17775;57.948;12.514;2022-10-13T12:11:44;7.95;;;2.38;;
31126;SDS011;17775;57.948;12.514;2022-10-13T12:14:20;9.90;;;3.17;;
31126;SDS011;17775;57.948;12.514;2022-10-13T12:16:53;12.38;;;2.50;;
31126;SDS011;17775;57.948;12.514;2022-10-13T12:19:26;12.77;;;2.67;;
31126;SDS011;17775;57.948;12.514;2022-10-13T12:21:54;8.77;;;2.45;;
31126;SDS011;17775;57.948;12.514;2022-10-13T12:24:21;13.85;;;2.95;;
31126;SDS011;17775;57.948;12.514;2022-10-13T12:26:49;16.65;;;2.53;;
31126;SDS011;17775;57.948;12.514;2022-10-13T12:29:16;12.30;;;2.47;;
31126;SDS011;17775;57.948;12.514;2022-10-13T12:31:45;7.75;;;2.95;;
31126;SDS011;17775;57.948;12.514;2022-10-13T12:34:18;10.10;;;3.38;;
31126;SDS011;17775;57.948;12.514;2022-10-13T12:36:45;10.05;;;2.65;;
31126;SDS011;17775;57.948;12.514;2022-10-13T12:39:15;10.80;;;2.75;;
31126;SDS011;17775;57.948;12.514;2022-10-13T12:41:44;9.27;;;2.55;;
31126;SDS011;17775;57.948;12.514;2022-10-13T12:44:16;7.28;;;2.78;;
31126;SDS011;17775;57.948;12.514;2022-10-13T12:46:43;7.40;;;2.60;;
31126;SDS011;17775;57.948;12.514;2022-10-13T12:50:10;9.35;;;2.47;;
31126;SDS011;17775;57.948;12.514;2022-10-13T12:54:56;6.38;;;2.80;;
31126;SDS011;17775;57.948;12.514;2022-10-13T13:00:04;13.52;;;3.63;;
31126;SDS011;17775;57.948;12.514;2022-10-13T13:02:31;11.63;;;4.00;;
31126;SDS011;17775;57.948;12.514;2022-10-13T13:04:58;12.95;;;3.85;;
31126;SDS011;17775;57.948;12.514;2022-10-13T13:07:31;15.90;;;3.42;;
31126;SDS011;17775;57.948;12.514;2022-10-13T13:10:21;14.65;;;4.28;;
31126;SDS011;17775;57.948;12.514;2022-10-13T13:12:46;11.00;;;3.80;;
31126;SDS011;17775;57.948;12.514;2022-10-13T13:17:43;15.35;;;4.75;;
31126;SDS011;17775;57.948;12.514;2022-10-13T13:20:31;12.88;;;4.35;;
31126;SDS011;17775;57.948;12.514;2022-10-13T13:23:00;11.52;;;4.13;;
31126;SDS011;17775;57.948;12.514;2022-10-13T13:25:27;12.77;;;4.10;;
31126;SDS011;17775;57.948;12.514;2022-10-13T13:27:53;15.27;;;4.45;;
31126;SDS011;17775;57.948;12.514;2022-10-13T13:30:20;10.38;;;3.88;;
31126;SDS011;17775;57.948;12.514;2022-10-13T13:32:47;10.70;;;4.05;;
31126;SDS011;17775;57.948;12.514;2022-10-13T13:35:13;15.18;;;3.65;;
31126;SDS011;17775;57.948;12.514;2022-10-13T13:37:41;10.82;;;4.68;;
31126;SDS011;17775;57.948;12.514;2022-10-13T13:40:13;13.75;;;4.68;;
31126;SDS011;17775;57.948;12.514;2022-10-13T13:42:40;11.07;;;3.80;;
31126;SDS011;17775;57.948;12.514;2022-10-13T13:45:06;12.93;;;3.80;;
31126;SDS011;17775;57.948;12.514;2022-10-13T13:47:33;8.88;;;3.78;;
31126;SDS011;17775;57.948;12.514;2022-10-13T13:49:59;12.88;;;4.35;;
31126;SDS011;17775;57.948;12.514;2022-10-13T13:52:26;14.05;;;3.50;;
31126;SDS011;17775;57.948;12.514;2022-10-13T13:54:52;11.05;;;3.75;;
31126;SDS011;17775;57.948;12.514;2022-10-13T13:57:21;12.25;;;3.72;;
31126;SDS011;17775;57.948;12.514;2022-10-13T13:59:48;14.50;;;5.07;;
31126;SDS011;17775;57.948;12.514;2022-10-13T14:02:15;16.92;;;5.03;;
31126;SDS011;17775;57.948;12.514;2022-10-13T14:04:42;11.10;;;3.20;;
31126;SDS011;17775;57.948;12.514;2022-10-13T14:07:09;7.55;;;3.08;;
31126;SDS011;17775;57.948;12.514;2022-10-13T14:09:35;9.88;;;3.30;;
31126;SDS011;17775;57.948;12.514;2022-10-13T14:12:02;8.77;;;3.17;;
31126;SDS011;17775;57.948;12.514;2022-10-13T14:14:31;11.38;;;3.55;;
31126;SDS011;17775;57.948;12.514;2022-10-13T14:16:59;10.63;;;3.30;;
31126;SDS011;17775;57.948;12.514;2022-10-13T14:19:25;11.75;;;3.33;;
31126;SDS011;17775;57.948;12.514;2022-10-13T14:21:52;11.98;;;3.97;;
31126;SDS011;17775;57.948;12.514;2022-10-13T14:24:18;16.63;;;4.00;;
31126;SDS011;17775;57.948;12.514;2022-10-13T14:26:45;15.38;;;3.45;;
31126;SDS011;17775;57.948;12.514;2022-10-13T14:29:11;12.82;;;3.25;;
31126;SDS011;17775;57.948;12.514;2022-10-13T14:31:41;12.85;;;3.10;;
31126;SDS011;17775;57.948;12.514;2022-10-13T14:34:08;15.13;;;3.38;;
31126;SDS011;17775;57.948;12.514;2022-10-13T14:36:34;9.05;;;3.50;;
31126;SDS011;17775;57.948;12.514;2022-10-13T14:39:01;13.30;;;3.40;;
31126;SDS011;17775;57.948;12.514;2022-10-13T14:41:28;12.50;;;2.90;;
31126;SDS011;17775;57.948;12.514;2022-10-13T14:43:54;9.20;;;3.30;;
31126;SDS011;17775;57.948;12.514;2022-10-13T14:46:21;13.55;;;2.95;;
31126;SDS011;17775;57.948;12.514;2022-10-13T14:48:48;9.50;;;3.00;;
31126;SDS011;17775;57.948;12.514;2022-10-13T14:51:14;12.35;;;3.10;;
31126;SDS011;17775;57.948;12.514;2022-10-13T14:53:43;20.70;;;4.18;;
31126;SDS011;17775;57.948;12.514;2022-10-13T14:56:22;15.20;;;4.03;;
31126;SDS011;17775;57.948;12.514;2022-10-13T14:58:50;16.42;;;3.88;;
31126;SDS011;17775;57.948;12.514;2022-10-13T15:01:20;8.30;;;3.30;;
31126;SDS011;17775;57.948;12.514;2022-10-13T15:03:47;11.77;;;3.85;;
31126;SDS011;17775;57.948;12.514;2022-10-13T15:06:14;10.00;;;3.97;;
31126;SDS011;17775;57.948;12.514;2022-10-13T15:08:41;10.55;;;3.20;;
31126;SDS011;17775;57.948;12.514;2022-10-13T15:11:08;15.20;;;3.40;;
31126;SDS011;17775;57.948;12.514;2022-10-13T15:13:35;9.15;;;3.00;;
31126;SDS011;17775;57.948;12.514;2022-10-13T15:16:02;14.27;;;3.20;;
31126;SDS011;17775;57.948;12.514;2022-10-13T15:18:31;12.88;;;3.40;;
31126;SDS011;17775;57.948;12.514;2022-10-13T15:20:58;10.32;;;2.97;;
31126;SDS011;17775;57.948;12.514;2022-10-13T15:23:25;12.38;;;4.03;;
31126;SDS011;17775;57.948;12.514;2022-10-13T15:25:56;12.18;;;3.08;;
31126;SDS011;17775;57.948;12.514;2022-10-13T15:30:49;13.88;;;3.40;;
31126;SDS011;17775;57.948;12.514;2022-10-13T15:33:19;13.85;;;3.63;;
31126;SDS011;17775;57.948;12.514;2022-10-13T15:35:49;7.10;;;2.38;;
31126;SDS011;17775;57.948;12.514;2022-10-13T15:38:16;12.63;;;3.40;;
31126;SDS011;17775;57.948;12.514;2022-10-13T15:40:43;6.82;;;3.08;;
31126;SDS011;17775;57.948;12.514;2022-10-13T15:43:10;16.35;;;3.35;;
31126;SDS011;17775;57.948;12.514;2022-10-13T15:45:37;10.77;;;3.85;;
31126;SDS011;17775;57.948;12.514;2022-10-13T15:48:04;14.48;;;3.25;;
31126;SDS011;17775;57.948;12.514;2022-10-13T15:50:30;17.60;;;3.67;;
31126;SDS011;17775;57.948;12.514;2022-10-13T15:52:57;13.13;;;3.40;;
31126;SDS011;17775;57.948;12.514;2022-10-13T15:55:24;10.38;;;3.38;;
31126;SDS011;17775;57.948;12.514;2022-10-13T15:57:50;17.10;;;3.50;;